createdAt,value
2018-05-13T00:16:42.178Z,18.80
2018-05-13T00:37:17.448Z,14.20
2018-05-13T00:57:50.873Z,13.70
2018-05-13T01:18:24.918Z,12.07
2018-05-13T01:39:00.422Z,10.37
2018-05-13T01:59:34.238Z,9.37
2018-05-13T02:20:07.903Z,6.77
2018-05-13T02:40:40.782Z,12.47
2018-05-13T03:01:15.138Z,8.50
2018-05-13T03:21:48.563Z,9.70
2018-05-13T03:42:25.740Z,6.10
2018-05-13T04:02:59.724Z,9.40
2018-05-13T04:23:34.180Z,17.33
2018-05-13T04:44:07.198Z,5.67
2018-05-13T05:04:40.317Z,7.37
2018-05-13T05:25:17.854Z,9.17
2018-05-13T05:45:53.936Z,6.37
2018-05-13T06:06:27.049Z,7.90
2018-05-13T06:27:02.329Z,5.80
2018-05-13T06:47:37.605Z,4.97
2018-05-13T07:08:16.024Z,6.13
2018-05-13T07:28:47.837Z,6.70
2018-05-13T07:49:23.110Z,5.47
2018-05-13T08:09:58.385Z,6.40
2018-05-13T08:30:33.658Z,8.73
2018-05-13T08:51:08.935Z,9.20
2018-05-13T09:11:42.049Z,11.30
2018-05-13T09:32:15.479Z,15.70
2018-05-13T09:52:51.821Z,13.90
2018-05-13T10:13:24.807Z,12.50
2018-05-13T10:34:03.296Z,16.33
2018-05-13T10:54:36.497Z,12.03
2018-05-13T11:15:10.607Z,9.03
2018-05-13T11:35:43.729Z,6.37
2018-05-13T11:56:20.850Z,5.73
2018-05-13T12:16:55.195Z,11.07
2018-05-13T12:22:33.831Z,5.20
2018-05-13T12:25:02.322Z,7.43
2018-05-13T12:27:30.906Z,5.33
2018-05-13T12:29:59.299Z,12.00
2018-05-13T12:32:27.707Z,8.77
2018-05-13T12:34:57.026Z,5.10
2018-05-13T12:37:25.381Z,8.07
2018-05-13T12:39:53.774Z,5.87
2018-05-13T12:42:23.106Z,5.03
2018-05-13T12:44:52.386Z,6.90
2018-05-13T12:47:20.758Z,10.00
2018-05-13T12:49:52.512Z,4.20
2018-05-13T12:52:20.867Z,3.77
2018-05-13T12:54:49.249Z,4.43
2018-05-13T12:57:17.766Z,12.23
2018-05-13T12:59:46.001Z,7.40
2018-05-13T13:02:14.393Z,3.60
2018-05-13T13:04:42.777Z,4.73
2018-05-13T13:07:11.140Z,3.33
2018-05-13T13:09:45.336Z,3.13
2018-05-13T13:12:13.753Z,4.27
2018-05-13T13:14:42.131Z,4.93
2018-05-13T13:17:10.537Z,7.50
2018-05-13T13:19:38.893Z,3.30
2018-05-13T13:22:07.324Z,5.30
2018-05-13T13:24:35.679Z,3.90
2018-05-13T13:27:05.861Z,3.63
2018-05-13T13:29:34.296Z,18.40
2018-05-13T13:32:02.619Z,9.60
2018-05-13T13:34:31.020Z,6.07
2018-05-13T13:36:59.405Z,5.57
2018-05-13T13:39:27.780Z,4.77
2018-05-13T13:41:56.171Z,14.77
2018-05-13T13:44:24.549Z,5.73
2018-05-13T13:46:53.847Z,8.40
2018-05-13T13:49:22.226Z,7.00
2018-05-13T13:51:50.625Z,5.27
2018-05-13T13:54:18.979Z,6.87
2018-05-13T13:56:47.364Z,5.90
2018-05-13T13:59:15.742Z,6.80
2018-05-13T14:01:44.120Z,11.00
2018-05-13T14:04:12.500Z,6.13
2018-05-13T14:06:41.830Z,5.00
2018-05-13T14:09:10.175Z,8.53
2018-05-13T14:11:38.562Z,5.73
2018-05-13T14:14:06.968Z,7.17
2018-05-13T14:16:35.319Z,6.10
2018-05-13T14:19:03.708Z,6.87
2018-05-13T14:21:32.089Z,7.43
2018-05-13T14:24:00.458Z,5.60
2018-05-13T14:26:29.799Z,6.97
2018-05-13T14:28:59.990Z,7.13
2018-05-13T14:31:28.365Z,11.23
2018-05-13T14:34:00.460Z,6.60
2018-05-13T14:36:29.723Z,9.40
2018-05-13T14:38:58.125Z,6.20
2018-05-13T14:41:26.502Z,11.40
2018-05-13T14:43:54.800Z,10.07
2018-05-13T14:46:23.084Z,44.03
2018-05-13T14:48:51.347Z,6.63
2018-05-13T14:51:20.009Z,6.17
2018-05-13T14:53:48.312Z,5.90
2018-05-13T14:56:17.069Z,6.07
2018-05-13T14:58:45.363Z,5.67
2018-05-13T15:01:13.631Z,5.30
2018-05-13T15:03:41.933Z,5.73
2018-05-13T15:06:10.252Z,8.30
2018-05-13T15:08:39.303Z,5.07
2018-05-13T15:11:07.990Z,6.63
2018-05-13T15:13:36.298Z,5.00
2018-05-13T15:16:04.597Z,4.83
2018-05-13T15:18:32.913Z,10.33
2018-05-13T15:21:01.184Z,5.10
2018-05-13T15:23:29.454Z,15.00
2018-05-13T15:25:57.763Z,9.77
2018-05-13T15:28:26.042Z,5.67
2018-05-13T15:30:54.329Z,7.17
2018-05-13T15:33:22.612Z,14.07
2018-05-13T15:35:50.898Z,4.67
2018-05-13T15:38:19.191Z,4.83
2018-05-13T15:40:47.467Z,4.37
2018-05-13T15:43:15.773Z,7.53
2018-05-13T15:45:44.776Z,5.53
2018-05-13T15:48:13.061Z,5.10
2018-05-13T15:50:41.776Z,7.43
2018-05-13T15:53:10.049Z,4.20
2018-05-13T15:55:38.346Z,11.60
2018-05-13T15:58:06.631Z,5.37
2018-05-13T16:00:34.886Z,5.20
2018-05-13T16:03:04.724Z,6.43
2018-05-13T16:05:34.188Z,5.50
2018-05-13T16:08:02.522Z,13.30
2018-05-13T16:10:30.806Z,6.13
2018-05-13T16:12:59.073Z,8.67
2018-05-13T16:15:28.135Z,7.03
2018-05-13T16:17:56.403Z,6.00
2018-05-13T16:20:24.708Z,7.17
2018-05-13T16:22:54.997Z,6.50
2018-05-13T16:25:23.981Z,8.43
2018-05-13T16:27:52.680Z,11.83
2018-05-13T16:30:20.969Z,8.60
2018-05-13T16:32:50.071Z,8.57
2018-05-13T16:35:18.372Z,13.10
2018-05-13T16:37:47.745Z,17.60
2018-05-13T16:40:16.019Z,9.40
2018-05-13T16:42:44.287Z,9.33
2018-05-13T16:45:12.566Z,12.73
2018-05-13T16:47:40.833Z,7.70
2018-05-13T16:50:09.133Z,11.10
2018-05-13T16:52:37.439Z,9.10
2018-05-13T16:55:06.109Z,8.33
2018-05-13T16:57:34.431Z,8.60
2018-05-13T17:00:03.485Z,8.30
2018-05-13T17:02:31.773Z,8.20
2018-05-13T17:05:00.578Z,7.13
2018-05-13T17:07:29.612Z,8.07
2018-05-13T17:09:57.952Z,8.67
2018-05-13T17:12:26.990Z,8.37
2018-05-13T17:14:55.296Z,10.83
2018-05-13T17:17:24.025Z,8.77
2018-05-13T17:19:52.252Z,16.17
2018-05-13T17:22:20.611Z,7.07
2018-05-13T17:24:48.891Z,20.47
2018-05-13T17:27:17.144Z,8.03
2018-05-13T17:29:45.547Z,9.63
2018-05-13T17:32:13.795Z,10.60
2018-05-13T17:34:42.141Z,10.70
2018-05-13T17:37:10.427Z,8.17
2018-05-13T17:39:38.731Z,12.53
2018-05-13T17:42:07.017Z,10.53
2018-05-13T17:44:35.318Z,10.90
2018-05-13T17:47:03.580Z,10.27
2018-05-13T17:49:31.874Z,12.70
2018-05-13T17:52:00.175Z,10.50
2018-05-13T17:54:29.308Z,8.20
2018-05-13T17:56:57.581Z,10.70
2018-05-13T17:59:25.890Z,12.67
2018-05-13T18:01:54.201Z,16.77
2018-05-13T18:04:22.545Z,13.53
2018-05-13T18:06:50.932Z,13.70
2018-05-13T18:09:19.178Z,14.33
2018-05-13T18:11:47.481Z,13.33
2018-05-13T18:14:15.750Z,13.17
2018-05-13T18:16:44.069Z,13.10
2018-05-13T18:19:12.346Z,13.80
2018-05-13T18:21:40.733Z,12.63
2018-05-13T18:24:09.739Z,16.20
2018-05-13T18:26:38.049Z,18.80
2018-05-13T18:29:07.131Z,14.40
2018-05-13T18:31:35.444Z,15.73
2018-05-13T18:34:03.777Z,16.33
2018-05-13T18:36:32.061Z,13.50
2018-05-13T18:39:00.431Z,17.80
2018-05-13T18:41:28.684Z,15.30
2018-05-13T18:43:56.986Z,13.30
2018-05-13T18:46:25.365Z,20.50
2018-05-13T18:48:53.744Z,23.57
2018-05-13T18:51:22.192Z,16.80
2018-05-13T18:53:50.507Z,18.30
2018-05-13T18:56:18.806Z,17.57
2018-05-13T18:58:47.149Z,18.30
2018-05-13T19:01:15.511Z,18.00
2018-05-13T19:03:43.849Z,16.90
2018-05-13T19:06:14.759Z,25.30
2018-05-13T19:08:43.171Z,21.83
2018-05-13T19:11:12.232Z,17.10
2018-05-13T19:13:40.546Z,19.33
2018-05-13T19:16:08.818Z,14.80
2018-05-13T19:18:37.149Z,17.40
2018-05-13T19:21:05.513Z,18.87
2018-05-13T19:23:33.805Z,16.03
2018-05-13T19:26:02.249Z,16.40
2018-05-13T19:28:31.307Z,14.47
2018-05-13T19:30:59.682Z,17.90
2018-05-13T19:33:28.689Z,16.37
2018-05-13T19:35:56.968Z,17.17
2018-05-13T19:38:25.291Z,15.63
2018-05-13T19:40:53.575Z,10.70
2018-05-13T19:43:21.880Z,11.97
2018-05-13T19:45:50.176Z,14.43
2018-05-13T19:48:18.830Z,11.23
2018-05-13T19:50:47.147Z,7.57
2018-05-13T19:53:15.910Z,7.93
2018-05-13T19:55:44.203Z,7.90
2018-05-13T19:58:12.538Z,7.33
2018-05-13T20:00:40.819Z,7.90
2018-05-13T20:03:09.264Z,6.57
2018-05-13T20:05:37.437Z,5.77
2018-05-13T20:08:05.750Z,7.10
2018-05-13T20:10:34.061Z,6.80
2018-05-13T20:13:02.343Z,7.33
2018-05-13T20:15:31.473Z,4.50
2018-05-13T20:17:59.958Z,6.03
2018-05-13T20:20:28.380Z,5.70
2018-05-13T20:23:14.300Z,6.20
2018-05-13T20:25:42.589Z,6.77
2018-05-13T20:28:10.906Z,8.17
2018-05-13T20:30:39.241Z,6.40
2018-05-13T20:33:07.590Z,8.77
2018-05-13T20:35:35.892Z,9.27
2018-05-13T20:38:04.192Z,8.27
2018-05-13T20:40:32.477Z,9.77
2018-05-13T20:43:00.767Z,13.67
2018-05-13T20:45:29.847Z,19.87
2018-05-13T20:47:58.130Z,21.97
2018-05-13T20:50:26.497Z,28.93
2018-05-13T20:52:54.817Z,34.33
2018-05-13T20:55:23.072Z,42.03
2018-05-13T20:57:51.489Z,45.73
2018-05-13T21:00:19.730Z,52.10
2018-05-13T21:02:48.831Z,49.80
2018-05-13T21:05:17.915Z,67.53
2018-05-13T21:07:46.161Z,60.13
2018-05-13T21:10:14.449Z,64.93
2018-05-13T21:12:42.725Z,67.67
2018-05-13T21:15:11.023Z,67.43
2018-05-13T21:17:39.321Z,86.90
2018-05-13T21:20:07.632Z,69.40
2018-05-13T21:22:35.917Z,90.23
2018-05-13T21:25:04.190Z,60.30
2018-05-13T21:27:32.492Z,207.97
2018-05-13T21:30:00.860Z,70.53
2018-05-13T21:32:29.129Z,66.23
2018-05-13T21:34:57.405Z,62.23
2018-05-13T21:37:25.713Z,67.33
2018-05-13T21:39:53.990Z,70.00
2018-05-13T21:42:23.778Z,79.73
2018-05-13T21:44:52.076Z,79.60
2018-05-13T21:47:20.375Z,66.30
2018-05-13T21:49:48.675Z,68.27
2018-05-13T21:52:16.983Z,55.63
2018-05-13T21:54:45.261Z,66.70
2018-05-13T22:15:19.703Z,64.43
2018-05-13T22:35:52.824Z,48.90
2018-05-13T22:56:27.365Z,57.37
2018-05-13T23:17:02.588Z,46.33
2018-05-13T23:37:35.831Z,51.97
2018-05-13T23:58:07.775Z,41.00
